Time;durP1;ratioP1;P1;durP2;ratioP2;P2;SDS_P1;SDS_P2;PMS_P1;PMS_P2;Temp;Humidity;BMP_temperature;BMP_pressure;BME280_temperature;BME280_humidity;BME280_pressure;Samples;Min_cycle;Max_cycle;Signal;HPM_P1;HPM_P2
2023/01/25 00:01:58;;;;;;;29.85;18.08;;;4.60;99.90;;;;;;4902821;29;20091;-73
2023/01/25 00:07:12;;;;;;;27.27;16.67;;;4.60;99.90;;;;;;5216708;23;20119;-76
2023/01/25 00:09:37;;;;;;;26.58;16.73;;;4.50;99.90;;;;;;4925668;28;20430;-75
2023/01/25 00:12:03;;;;;;;26.90;16.60;;;4.50;99.90;;;;;;4938614;28;20057;-75
2023/01/25 00:14:29;;;;;;;28.55;17.40;;;4.60;99.90;;;;;;4936179;28;20035;-76
2023/01/25 00:16:55;;;;;;;30.88;17.00;;;4.70;99.90;;;;;;4937908;29;20042;-76
2023/01/25 00:19:20;;;;;;;30.25;16.55;;;4.60;99.90;;;;;;4939138;28;20115;-76
2023/01/25 00:21:46;;;;;;;27.88;17.90;;;4.60;99.90;;;;;;4938451;28;20457;-75
2023/01/25 00:24:13;;;;;;;30.98;17.38;;;4.50;99.90;;;;;;4920726;29;20070;-75
2023/01/25 00:26:39;;;;;;;28.52;17.58;;;4.40;99.90;;;;;;4939990;28;20085;-75
2023/01/25 00:29:05;;;;;;;29.25;17.30;;;4.50;99.90;;;;;;4938915;28;20142;-76
2023/01/25 00:31:33;;;;;;;26.98;16.83;;;4.50;99.90;;;;;;4936887;28;20131;-76
2023/01/25 00:34:01;;;;;;;24.08;15.45;;;4.50;99.90;;;;;;4938280;28;20402;-75
2023/01/25 00:36:40;;;;;;;26.88;15.27;;;4.50;99.90;;;;;;4938531;28;20435;-75
2023/01/25 00:39:09;;;;;;;25.95;15.80;;;4.40;99.90;;;;;;4936125;28;20027;-75
2023/01/25 00:41:34;;;;;;;28.38;16.80;;;4.50;99.90;;;;;;4940594;28;20032;-76
2023/01/25 00:44:00;;;;;;;26.20;15.57;;;4.50;99.90;;;;;;4943230;28;20058;-76
2023/01/25 00:46:26;;;;;;;22.48;14.60;;;4.50;99.90;;;;;;4925222;28;20094;-75
2023/01/25 00:48:53;;;;;;;23.08;13.95;;;4.40;99.90;;;;;;4943246;28;20050;-76
2023/01/25 00:51:19;;;;;;;22.27;13.95;;;4.50;99.90;;;;;;4926095;29;20155;-75
2023/01/25 00:53:45;;;;;;;24.67;15.73;;;4.50;99.90;;;;;;4942821;28;20146;-75
2023/01/25 00:56:10;;;;;;;25.00;15.00;;;4.60;99.90;;;;;;4940320;29;20442;-75
2023/01/25 00:58:36;;;;;;;26.85;15.85;;;4.60;99.90;;;;;;4943858;28;20433;-76
2023/01/25 01:01:02;;;;;;;28.58;16.23;;;4.50;99.90;;;;;;4941688;28;20130;-76
2023/01/25 01:03:27;;;;;;;35.88;19.35;;;4.60;99.90;;;;;;5400866;23;20059;-78
2023/01/25 01:06:05;;;;;;;27.08;15.77;;;4.50;99.90;;;;;;4934119;23;20055;-72
2023/01/25 01:08:35;;;;;;;23.98;15.50;;;4.30;99.90;;;;;;4945106;23;20056;-72
2023/01/25 01:11:04;;;;;;;24.50;15.30;;;4.40;99.90;;;;;;4941353;28;20027;-72
2023/01/25 01:13:30;;;;;;;26.83;17.05;;;4.40;99.90;;;;;;4946142;23;20254;-72
2023/01/25 01:15:56;;;;;;;29.23;17.35;;;4.50;99.90;;;;;;4923217;29;20035;-72
2023/01/25 01:18:22;;;;;;;30.33;17.27;;;4.50;99.90;;;;;;4923366;29;20662;-72
2023/01/25 01:20:50;;;;;;;30.95;18.92;;;4.40;99.90;;;;;;4932682;23;20052;-76
2023/01/25 01:23:15;;;;;;;31.25;18.50;;;4.50;99.90;;;;;;4911813;29;20028;-76
2023/01/25 01:25:41;;;;;;;34.20;19.55;;;4.50;99.90;;;;;;4894875;29;20044;-77
2023/01/25 01:28:06;;;;;;;37.40;19.70;;;4.50;99.90;;;;;;4894444;29;20038;-77
2023/01/25 01:30:32;;;;;;;34.15;20.00;;;4.50;99.90;;;;;;4902565;29;20508;-77
2023/01/25 01:32:58;;;;;;;37.00;21.30;;;4.50;99.90;;;;;;4920643;29;20091;-77
2023/01/25 01:35:23;;;;;;;29.48;17.60;;;4.50;99.90;;;;;;4905597;29;20063;-77
2023/01/25 01:37:49;;;;;;;37.63;20.20;;;4.50;99.90;;;;;;4921772;29;20039;-77
2023/01/25 01:40:16;;;;;;;34.20;19.88;;;4.40;99.90;;;;;;4905804;29;20125;-77
2023/01/25 01:43:03;;;;;;;31.48;17.25;;;4.50;99.90;;;;;;4922055;29;20122;-77
2023/01/25 01:45:49;;;;;;;23.52;12.73;;;4.40;99.90;;;;;;4901358;29;20523;-77
2023/01/25 01:48:39;;;;;;;25.63;15.57;;;4.30;99.90;;;;;;4904526;29;20115;-76
2023/01/25 01:51:11;;;;;;;27.65;15.35;;;4.30;99.90;;;;;;4902192;29;20031;-77
2023/01/25 01:53:37;;;;;;;26.30;15.63;;;4.30;99.90;;;;;;4893052;29;20056;-78
2023/01/25 01:56:10;;;;;;;28.98;16.65;;;4.40;99.90;;;;;;4895652;29;20119;-76
2023/01/25 01:58:36;;;;;;;32.60;18.15;;;4.40;99.90;;;;;;4905525;29;20498;-78
2023/01/25 02:01:02;;;;;;;27.80;17.48;;;4.40;99.90;;;;;;4902234;29;20039;-77
2023/01/25 02:03:28;;;;;;;25.85;16.85;;;4.50;99.90;;;;;;4921468;29;20530;-77
2023/01/25 02:06:14;;;;;;;27.13;16.83;;;4.60;99.90;;;;;;5316402;23;20058;-75
2023/01/25 02:08:42;;;;;;;28.27;17.05;;;4.60;99.90;;;;;;4926705;23;20363;-73
2023/01/25 02:11:09;;;;;;;26.48;16.45;;;4.60;99.90;;;;;;4933093;28;20027;-72
2023/01/25 02:13:35;;;;;;;27.55;16.48;;;4.60;99.90;;;;;;4915084;29;20357;-72
2023/01/25 02:16:02;;;;;;;30.48;17.85;;;4.60;99.90;;;;;;4936213;28;20031;-72
2023/01/25 02:18:28;;;;;;;33.05;19.50;;;4.60;99.90;;;;;;4939107;29;20448;-72
2023/01/25 02:20:57;;;;;;;28.00;17.98;;;4.50;99.90;;;;;;4938566;28;20038;-72
2023/01/25 02:23:37;;;;;;;30.88;18.15;;;4.50;99.90;;;;;;4904483;29;20039;-72
2023/01/25 02:26:05;;;;;;;33.58;18.40;;;4.60;99.90;;;;;;4934838;29;20145;-72
2023/01/25 02:29:07;;;;;;;30.85;17.75;;;4.60;99.90;;;;;;4931417;28;20039;-73
2023/01/25 02:31:33;;;;;;;34.00;19.13;;;4.60;99.90;;;;;;4887684;29;20060;-72
2023/01/25 02:33:59;;;;;;;32.28;19.10;;;4.60;99.90;;;;;;4920105;28;20129;-72
2023/01/25 02:36:28;;;;;;;33.83;19.05;;;4.50;99.90;;;;;;4918703;29;20506;-73
2023/01/25 02:39:06;;;;;;;32.67;17.92;;;4.60;99.90;;;;;;4919787;28;20032;-73
2023/01/25 02:41:42;;;;;;;23.98;15.90;;;4.60;99.90;;;;;;4921667;29;20134;-74
2023/01/25 02:44:13;;;;;;;29.05;14.45;;;4.50;99.90;;;;;;4935918;29;20380;-72
2023/01/25 02:46:40;;;;;;;25.67;14.65;;;4.50;99.90;;;;;;4939128;28;20074;-72
2023/01/25 02:49:08;;;;;;;24.38;15.00;;;4.40;99.90;;;;;;4919977;23;20061;-73
2023/01/25 02:51:36;;;;;;;23.48;14.50;;;4.40;99.90;;;;;;4931206;28;20034;-72
2023/01/25 02:54:04;;;;;;;25.10;14.85;;;4.50;99.90;;;;;;4916316;29;20118;-72
2023/01/25 02:56:30;;;;;;;27.52;15.18;;;4.50;99.90;;;;;;4936664;28;20063;-73
2023/01/25 02:58:56;;;;;;;25.45;14.68;;;4.60;99.90;;;;;;4932442;28;20039;-73
2023/01/25 03:04:04;;;;;;;26.70;16.13;;;4.60;99.90;;;;;;5266644;23;20066;-78
2023/01/25 03:06:30;;;;;;;24.98;15.35;;;4.60;99.90;;;;;;5094294;23;20070;-72
2023/01/25 03:08:56;;;;;;;24.88;14.88;;;4.50;99.90;;;;;;4901690;29;20063;-73
2023/01/25 03:11:22;;;;;;;24.52;14.88;;;4.50;99.90;;;;;;4926026;23;20182;-72
2023/01/25 03:13:47;;;;;;;27.17;16.13;;;4.60;99.90;;;;;;4918233;29;20024;-73
2023/01/25 03:16:13;;;;;;;26.58;15.90;;;4.60;99.90;;;;;;4902628;29;20039;-73
2023/01/25 03:18:40;;;;;;;23.05;14.82;;;4.60;99.90;;;;;;4934279;23;21336;-77
2023/01/25 03:21:08;;;;;;;24.63;14.50;;;4.60;99.90;;;;;;4939635;28;20083;-77
2023/01/25 03:23:34;;;;;;;30.23;17.08;;;4.60;99.90;;;;;;4921210;29;20043;-77
2023/01/25 03:26:20;;;;;;;26.45;16.08;;;4.60;99.90;;;;;;4926265;29;20043;-79
2023/01/25 03:28:45;;;;;;;28.98;16.92;;;4.60;99.90;;;;;;4935930;28;20050;-79
2023/01/25 03:31:13;;;;;;;25.58;15.45;;;4.60;99.90;;;;;;4944292;28;20043;-79
2023/01/25 03:33:40;;;;;;;31.42;17.08;;;4.60;99.90;;;;;;4943617;28;20514;-79
2023/01/25 03:36:06;;;;;;;27.45;15.70;;;4.60;99.90;;;;;;4944084;28;20067;-79
2023/01/25 03:38:33;;;;;;;28.55;16.35;;;4.50;99.90;;;;;;4943961;29;20118;-78
2023/01/25 03:40:59;;;;;;;27.20;16.02;;;4.50;99.90;;;;;;4944310;29;20035;-79
2023/01/25 03:43:24;;;;;;;32.78;19.23;;;4.50;99.90;;;;;;4939152;29;20110;-79
2023/01/25 03:45:55;;;;;;;31.38;17.65;;;4.50;99.90;;;;;;4943306;28;20038;-79
2023/01/25 03:48:22;;;;;;;29.50;18.35;;;4.50;99.90;;;;;;4944932;28;20031;-78
2023/01/25 03:50:49;;;;;;;33.83;18.17;;;4.50;99.90;;;;;;4943388;29;20111;-79
2023/01/25 03:53:26;;;;;;;30.55;16.77;;;4.50;99.90;;;;;;4945109;28;20031;-79
2023/01/25 03:55:54;;;;;;;29.55;17.25;;;4.30;99.90;;;;;;4926276;28;20051;-78
2023/01/25 03:58:19;;;;;;;29.67;17.45;;;4.20;99.90;;;;;;4944958;28;20054;-79
2023/01/25 04:00:45;;;;;;;32.95;18.85;;;4.30;99.90;;;;;;4943270;28;20039;-79
2023/01/25 04:03:11;;;;;;;33.97;18.90;;;4.40;99.90;;;;;;4926115;29;20126;-78
2023/01/25 04:05:36;;;;;;;34.97;19.77;;;4.40;99.90;;;;;;4932624;28;20114;-79
2023/01/25 04:08:02;;;;;;;32.40;18.65;;;4.40;99.90;;;;;;4924934;28;20394;-78
2023/01/25 04:10:27;;;;;;;31.15;18.25;;;4.40;99.90;;;;;;4941655;28;20031;-78
2023/01/25 04:12:53;;;;;;;29.77;16.75;;;4.40;99.90;;;;;;4924179;29;20658;-79
2023/01/25 04:15:18;;;;;;;30.48;17.83;;;4.30;99.90;;;;;;4939885;29;20042;-79
2023/01/25 04:17:44;;;;;;;29.80;16.35;;;4.30;99.90;;;;;;4944552;29;20463;-79
2023/01/25 04:20:10;;;;;;;23.52;15.43;;;4.30;99.90;;;;;;4930696;29;20050;-79
2023/01/25 04:22:36;;;;;;;23.80;14.55;;;4.20;99.90;;;;;;4908934;29;20127;-79
2023/01/25 04:25:01;;;;;;;27.70;15.50;;;4.20;99.90;;;;;;4916570;29;20122;-79
2023/01/25 04:27:27;;;;;;;28.00;16.42;;;4.20;99.90;;;;;;4942128;29;20358;-79
2023/01/25 04:29:52;;;;;;;27.13;15.25;;;4.20;99.90;;;;;;4925295;29;20041;-79
2023/01/25 04:32:18;;;;;;;27.63;15.02;;;4.20;99.90;;;;;;4926664;29;20038;-80
2023/01/25 04:34:44;;;;;;;24.92;15.05;;;4.10;99.90;;;;;;4928074;28;20031;-80
2023/01/25 04:37:09;;;;;;;26.33;15.05;;;4.20;99.90;;;;;;4920668;29;20130;-79
2023/01/25 04:39:35;;;;;;;26.13;15.95;;;4.20;99.90;;;;;;4911434;29;20046;-79
2023/01/25 04:42:00;;;;;;;27.23;15.63;;;4.20;99.90;;;;;;4922806;29;20453;-79
2023/01/25 04:44:26;;;;;;;25.30;15.30;;;4.20;99.90;;;;;;4921310;29;20039;-79
2023/01/25 04:46:51;;;;;;;26.05;15.95;;;4.10;99.90;;;;;;4944999;28;20517;-79
2023/01/25 04:49:17;;;;;;;25.60;15.35;;;4.10;99.90;;;;;;4925733;29;20034;-79
2023/01/25 04:51:43;;;;;;;25.40;15.32;;;4.10;99.90;;;;;;4929354;29;20467;-79
2023/01/25 04:54:08;;;;;;;23.17;14.85;;;4.20;99.90;;;;;;4937082;28;20031;-81
2023/01/25 04:56:34;;;;;;;26.73;14.93;;;4.10;99.90;;;;;;4941637;29;20031;-79
2023/01/25 04:59:00;;;;;;;26.95;14.68;;;4.00;99.90;;;;;;4925031;29;20468;-79
2023/01/25 05:01:25;;;;;;;24.17;14.48;;;4.10;99.90;;;;;;4939288;28;20035;-79
2023/01/25 05:03:51;;;;;;;25.38;15.15;;;4.00;99.90;;;;;;4918297;29;20164;-78
2023/01/25 05:06:16;;;;;;;22.75;13.43;;;3.90;99.90;;;;;;4941485;28;20086;-78
2023/01/25 05:08:42;;;;;;;28.35;15.52;;;3.90;99.90;;;;;;4938059;28;20320;-79
2023/01/25 05:11:07;;;;;;;26.35;14.90;;;3.90;99.90;;;;;;4944432;29;20039;-79
2023/01/25 05:13:33;;;;;;;25.77;15.15;;;3.80;99.90;;;;;;4943324;28;20544;-79
2023/01/25 05:15:59;;;;;;;25.95;14.68;;;3.80;99.90;;;;;;4927729;29;20027;-80
2023/01/25 05:18:24;;;;;;;26.15;14.57;;;3.80;99.90;;;;;;4934106;28;20685;-79
2023/01/25 05:20:56;;;;;;;28.52;16.13;;;3.80;99.90;;;;;;4937855;29;20051;-79
2023/01/25 05:23:22;;;;;;;27.15;16.42;;;3.90;99.90;;;;;;4945060;28;20531;-79
2023/01/25 05:28:51;;;;;;;28.00;16.13;;;3.90;99.90;;;;;;4888096;29;20032;-78
2023/01/25 05:31:17;;;;;;;27.50;16.25;;;3.70;99.90;;;;;;4871342;29;20512;-78
2023/01/25 05:33:42;;;;;;;28.60;16.92;;;3.70;99.90;;;;;;4909268;29;20046;-79
2023/01/25 05:36:08;;;;;;;28.02;15.98;;;3.80;99.90;;;;;;4948168;28;20031;-79
2023/01/25 05:38:33;;;;;;;28.25;15.63;;;3.90;99.90;;;;;;4927190;29;20111;-79
2023/01/25 05:40:59;;;;;;;29.23;16.05;;;3.90;99.90;;;;;;4948450;28;20046;-79
2023/01/25 05:43:24;;;;;;;32.13;16.35;;;3.90;99.90;;;;;;4939181;28;20051;-78
2023/01/25 05:45:53;;;;;;;30.25;17.05;;;3.90;99.90;;;;;;4937934;29;20055;-78
2023/01/25 05:48:19;;;;;;;26.00;15.20;;;4.00;99.90;;;;;;4921391;29;20094;-79
2023/01/25 05:50:44;;;;;;;26.55;16.02;;;4.00;99.90;;;;;;4928404;29;20503;-78
2023/01/25 05:53:10;;;;;;;31.10;16.92;;;3.90;99.90;;;;;;4929118;29;20031;-79
2023/01/25 05:55:35;;;;;;;28.58;15.63;;;3.90;99.90;;;;;;4930262;29;20451;-78
2023/01/25 05:58:01;;;;;;;28.08;16.17;;;3.90;99.90;;;;;;4929539;29;20375;-79
2023/01/25 06:00:27;;;;;;;28.00;16.48;;;3.70;99.90;;;;;;4947503;29;20050;-78
2023/01/25 06:02:54;;;;;;;28.40;15.23;;;3.70;99.90;;;;;;4929685;29;20061;-79
2023/01/25 06:05:20;;;;;;;26.85;15.75;;;3.60;99.90;;;;;;4946436;28;20047;-78
2023/01/25 06:07:45;;;;;;;28.40;15.65;;;3.50;99.90;;;;;;4946814;28;20131;-79
2023/01/25 06:10:11;;;;;;;25.88;15.13;;;3.60;99.90;;;;;;4930189;29;20158;-78
2023/01/25 06:12:38;;;;;;;32.03;16.35;;;3.60;99.90;;;;;;4946147;28;20031;-79
2023/01/25 06:15:04;;;;;;;22.70;14.63;;;3.70;99.90;;;;;;4946075;28;20571;-78
2023/01/25 06:17:30;;;;;;;25.83;15.98;;;3.70;99.90;;;;;;4919281;29;20039;-78
2023/01/25 06:19:55;;;;;;;26.45;15.90;;;3.80;99.90;;;;;;4937140;28;20335;-79
2023/01/25 06:22:21;;;;;;;29.75;15.85;;;3.80;99.90;;;;;;4938523;29;20038;-79
2023/01/25 06:24:46;;;;;;;29.00;17.45;;;3.80;99.90;;;;;;4944309;28;20299;-79
2023/01/25 06:27:12;;;;;;;29.05;15.25;;;3.70;99.90;;;;;;4948057;28;20046;-78
2023/01/25 06:29:38;;;;;;;26.85;15.32;;;3.70;99.90;;;;;;4947061;28;20483;-79
2023/01/25 06:32:03;;;;;;;27.45;15.25;;;3.70;99.90;;;;;;4927242;29;20489;-79
2023/01/25 06:34:29;;;;;;;25.33;15.35;;;3.70;99.90;;;;;;4928564;28;20039;-79
2023/01/25 06:36:54;;;;;;;24.92;14.35;;;3.80;99.90;;;;;;4946197;29;20039;-79
2023/01/25 06:39:20;;;;;;;26.40;15.35;;;3.80;99.90;;;;;;4930069;29;20042;-79
2023/01/25 06:41:46;;;;;;;29.98;16.50;;;3.80;99.90;;;;;;4945895;28;20043;-78
2023/01/25 06:44:11;;;;;;;27.30;15.15;;;3.70;99.90;;;;;;4936426;28;20114;-78
2023/01/25 06:46:37;;;;;;;26.20;15.38;;;3.70;99.90;;;;;;4947452;28;20035;-79
2023/01/25 06:49:03;;;;;;;28.10;14.13;;;3.70;99.90;;;;;;4943094;28;20028;-79
2023/01/25 06:51:28;;;;;;;24.80;13.82;;;3.60;99.90;;;;;;4943568;28;20062;-80
2023/01/25 06:53:54;;;;;;;23.30;13.70;;;3.60;99.90;;;;;;4947060;28;20031;-79
2023/01/25 06:56:21;;;;;;;21.65;12.90;;;3.40;99.90;;;;;;4945960;28;20027;-79
2023/01/25 06:58:48;;;;;;;23.35;13.70;;;3.50;99.90;;;;;;4932258;29;20394;-79
2023/01/25 07:01:19;;;;;;;22.05;13.55;;;3.40;99.90;;;;;;4928458;29;20409;-79
2023/01/25 07:03:49;;;;;;;24.85;14.13;;;3.50;99.90;;;;;;4946714;29;20031;-79
2023/01/25 07:06:15;;;;;;;26.10;14.30;;;3.40;99.90;;;;;;4946250;29;20238;-80
2023/01/25 07:08:40;;;;;;;26.85;14.63;;;3.40;99.90;;;;;;4912661;29;20256;-79
2023/01/25 07:11:11;;;;;;;26.83;15.18;;;3.50;99.90;;;;;;4935473;29;20093;-79
2023/01/25 07:13:36;;;;;;;23.90;14.27;;;3.50;99.90;;;;;;4947086;28;20031;-79
2023/01/25 07:16:05;;;;;;;28.75;15.30;;;3.50;99.90;;;;;;4930178;28;20155;-79
2023/01/25 07:18:32;;;;;;;28.58;14.90;;;3.40;99.90;;;;;;4928673;29;20031;-80
2023/01/25 07:21:05;;;;;;;27.70;15.65;;;3.50;99.90;;;;;;4929171;29;20054;-79
2023/01/25 07:23:32;;;;;;;28.17;14.93;;;3.40;99.90;;;;;;4929602;29;20486;-79
2023/01/25 07:25:58;;;;;;;28.08;14.88;;;3.30;99.90;;;;;;4929983;29;20085;-78
2023/01/25 07:28:24;;;;;;;79.10;34.97;;;3.30;99.90;;;;;;4947110;28;20039;-79
2023/01/25 07:30:50;;;;;;;33.50;16.65;;;3.20;99.90;;;;;;4928710;29;20479;-80
2023/01/25 07:33:16;;;;;;;26.10;15.38;;;3.20;99.90;;;;;;4946466;28;20038;-79
2023/01/25 07:35:41;;;;;;;27.83;15.73;;;3.20;99.90;;;;;;4924481;29;20031;-79
2023/01/25 07:38:08;;;;;;;25.67;14.07;;;3.10;99.90;;;;;;4934843;29;20122;-80
2023/01/25 07:40:34;;;;;;;25.63;13.93;;;3.00;99.90;;;;;;4944872;28;20189;-78
2023/01/25 07:42:59;;;;;;;27.75;14.50;;;3.00;99.90;;;;;;4926985;28;20402;-78
2023/01/25 07:45:29;;;;;;;32.67;16.80;;;3.00;99.90;;;;;;4942790;29;20039;-80
2023/01/25 07:47:58;;;;;;;26.60;14.82;;;2.80;99.90;;;;;;4939741;29;20097;-79
2023/01/25 07:50:26;;;;;;;27.75;14.82;;;2.70;99.90;;;;;;4244116;29;10000271;-79
2023/01/25 07:52:52;;;;;;;25.73;14.02;;;2.70;99.90;;;;;;4943289;28;20486;-80
2023/01/25 07:55:17;;;;;;;25.92;15.70;;;2.70;99.90;;;;;;4940753;28;20046;-79
2023/01/25 07:57:43;;;;;;;26.95;14.60;;;2.70;99.90;;;;;;4939594;29;20042;-79
2023/01/25 08:00:09;;;;;;;27.65;15.48;;;2.80;99.90;;;;;;4917159;29;20119;-78
2023/01/25 08:02:35;;;;;;;27.05;14.88;;;2.80;99.90;;;;;;4935725;28;20034;-78
2023/01/25 08:05:01;;;;;;;28.50;14.98;;;2.80;99.90;;;;;;4936769;28;20399;-78
2023/01/25 08:07:28;;;;;;;26.17;15.15;;;2.90;99.90;;;;;;4920289;29;20027;-79
2023/01/25 08:09:54;;;;;;;25.70;15.13;;;2.90;99.90;;;;;;4936791;28;20035;-77
2023/01/25 08:12:20;;;;;;;27.50;14.77;;;3.00;99.90;;;;;;4919172;29;20055;-79
2023/01/25 08:14:48;;;;;;;25.00;14.38;;;3.00;99.90;;;;;;4939443;29;20479;-78
2023/01/25 08:17:14;;;;;;;26.10;15.23;;;3.00;99.90;;;;;;4938602;28;20045;-78
2023/01/25 08:19:39;;;;;;;28.27;15.75;;;3.10;99.90;;;;;;4922169;29;20119;-79
2023/01/25 08:22:06;;;;;;;28.77;15.75;;;3.20;99.90;;;;;;4939311;29;20035;-80
2023/01/25 08:24:32;;;;;;;26.50;15.30;;;3.20;99.90;;;;;;4936437;28;20046;-78
2023/01/25 08:26:57;;;;;;;31.35;16.65;;;3.30;99.90;;;;;;4940957;29;20043;-77
2023/01/25 08:29:23;;;;;;;25.92;15.32;;;3.10;99.90;;;;;;4940862;28;20054;-78
2023/01/25 08:31:49;;;;;;;27.73;16.17;;;3.10;99.90;;;;;;4937402;28;20023;-79
2023/01/25 08:34:15;;;;;;;27.30;15.23;;;3.00;99.90;;;;;;4940018;29;20027;-79
2023/01/25 08:36:40;;;;;;;27.88;15.65;;;3.20;99.90;;;;;;4939784;29;20863;-78
2023/01/25 08:39:09;;;;;;;26.75;15.15;;;3.20;99.90;;;;;;4942546;28;20465;-78
2023/01/25 08:41:35;;;;;;;25.73;15.23;;;3.30;99.90;;;;;;4921118;28;20067;-78
2023/01/25 08:44:01;;;;;;;26.38;15.30;;;3.40;99.90;;;;;;4931138;29;20035;-78
2023/01/25 08:46:28;;;;;;;27.33;14.70;;;3.50;99.90;;;;;;4909726;29;20039;-79
2023/01/25 08:48:55;;;;;;;26.13;13.38;;;3.40;99.90;;;;;;4922827;29;20648;-78
2023/01/25 08:51:22;;;;;;;27.67;15.75;;;3.50;99.90;;;;;;4935986;29;20050;-78
2023/01/25 08:53:47;;;;;;;27.15;14.60;;;3.60;99.90;;;;;;4936692;28;20241;-78
2023/01/25 08:56:15;;;;;;;26.67;14.65;;;3.60;99.90;;;;;;4922392;29;20109;-79
2023/01/25 08:58:44;;;;;;;23.77;13.40;;;3.60;99.90;;;;;;4917843;29;20086;-78
2023/01/25 09:01:11;;;;;;;24.15;12.68;;;3.60;99.90;;;;;;4931649;28;20533;-78
2023/01/25 09:03:39;;;;;;;25.55;12.43;;;3.50;99.90;;;;;;4931309;28;20031;-78
2023/01/25 09:06:06;;;;;;;21.70;13.13;;;3.40;99.90;;;;;;4938575;29;20085;-78
2023/01/25 09:08:33;;;;;;;23.27;13.00;;;3.50;99.90;;;;;;4936422;28;20142;-79
2023/01/25 09:11:03;;;;;;;21.63;12.50;;;3.60;99.90;;;;;;4939739;28;20031;-78
2023/01/25 09:13:28;;;;;;;24.55;12.95;;;3.60;99.90;;;;;;4932970;28;20023;-78
2023/01/25 09:16:02;;;;;;;24.08;13.93;;;3.70;99.90;;;;;;4920116;29;20094;-78
2023/01/25 09:18:29;;;;;;;24.77;13.75;;;3.80;99.90;;;;;;4936953;28;20114;-79
2023/01/25 09:20:54;;;;;;;25.50;13.13;;;3.70;99.90;;;;;;4936426;28;20048;-78
2023/01/25 09:23:22;;;;;;;23.25;12.95;;;3.40;99.90;;;;;;4924746;29;20056;-79
2023/01/25 09:25:54;;;;;;;23.15;12.70;;;3.30;99.90;;;;;;4945594;29;20415;-76
2023/01/25 09:28:20;;;;;;;24.08;13.02;;;3.40;99.90;;;;;;4941076;28;20150;-78
2023/01/25 09:30:53;;;;;;;24.23;13.25;;;3.30;99.90;;;;;;4940240;29;20098;-79
2023/01/25 09:33:19;;;;;;;24.23;13.68;;;3.20;99.90;;;;;;4936573;28;20132;-79
2023/01/25 09:35:48;;;;;;;24.38;13.52;;;3.20;99.90;;;;;;4934943;29;20101;-78
2023/01/25 09:38:14;;;;;;;25.70;13.02;;;3.20;99.90;;;;;;4914182;29;20141;-78
2023/01/25 09:40:44;;;;;;;24.30;12.95;;;3.20;99.90;;;;;;4938753;29;20118;-78
2023/01/25 09:43:31;;;;;;;22.50;13.27;;;3.50;99.90;;;;;;4940831;29;20092;-78
2023/01/25 09:45:57;;;;;;;28.88;14.18;;;3.50;99.90;;;;;;4934221;28;20516;-78
2023/01/25 09:48:37;;;;;;;26.33;14.05;;;3.40;99.90;;;;;;4947141;28;20027;-78
2023/01/25 09:51:02;;;;;;;25.88;13.73;;;3.50;99.90;;;;;;4940735;28;20106;-79
2023/01/25 09:53:39;;;;;;;26.15;13.05;;;3.50;99.90;;;;;;4927327;29;20522;-78
2023/01/25 09:56:21;;;;;;;25.58;14.00;;;3.70;99.90;;;;;;4945439;29;20848;-78
2023/01/25 09:58:51;;;;;;;27.92;13.82;;;3.80;99.90;;;;;;4947767;28;20039;-77
2023/01/25 10:01:17;;;;;;;23.88;13.73;;;3.90;99.90;;;;;;4941725;28;20738;-78
2023/01/25 10:03:55;;;;;;;24.17;14.00;;;3.90;99.90;;;;;;4936977;28;20319;-78
2023/01/25 10:06:26;;;;;;;27.20;14.93;;;4.00;99.90;;;;;;4933302;28;20058;-79
2023/01/25 10:09:07;;;;;;;32.53;14.65;;;4.00;99.90;;;;;;4933317;28;20035;-78
2023/01/25 10:11:33;;;;;;;31.42;15.68;;;4.20;99.90;;;;;;4917818;29;20433;-77
2023/01/25 10:13:59;;;;;;;30.55;15.18;;;4.30;99.90;;;;;;4934584;28;20020;-76
2023/01/25 10:16:45;;;;;;;31.80;15.52;;;4.40;99.90;;;;;;4923145;29;20077;-79
2023/01/25 10:19:23;;;;;;;39.60;17.48;;;4.50;99.90;;;;;;4926654;28;20204;-78
2023/01/25 10:21:59;;;;;;;40.28;19.05;;;4.50;99.90;;;;;;4924854;29;20466;-77
2023/01/25 10:24:59;;;;;;;37.97;17.85;;;4.40;99.90;;;;;;4938110;28;20035;-78
2023/01/25 10:27:27;;;;;;;42.55;20.10;;;4.50;99.90;;;;;;4962892;28;20123;-78
2023/01/25 10:29:56;;;;;;;36.83;17.17;;;4.50;99.90;;;;;;4939476;28;20031;-78
2023/01/25 10:32:31;;;;;;;38.65;19.20;;;4.50;99.90;;;;;;4929076;29;20041;-78
2023/01/25 10:35:04;;;;;;;32.75;16.80;;;4.50;99.90;;;;;;4942701;28;20438;-78
2023/01/25 10:37:33;;;;;;;29.42;14.85;;;4.50;99.90;;;;;;4604300;28;10000191;-78
2023/01/25 10:40:25;;;;;;;33.33;17.30;;;4.50;99.90;;;;;;4946189;29;20027;-79
2023/01/25 10:42:57;;;;;;;34.75;17.38;;;4.50;99.90;;;;;;4946933;28;20043;-78
2023/01/25 10:45:22;;;;;;;30.63;15.48;;;4.40;99.90;;;;;;4929507;29;20516;-78
2023/01/25 10:48:05;;;;;;;32.40;15.90;;;4.40;99.90;;;;;;4942359;28;20118;-78
2023/01/25 10:50:45;;;;;;;28.35;14.75;;;4.50;99.90;;;;;;4919141;29;20713;-77
2023/01/25 10:53:32;;;;;;;28.23;13.88;;;4.40;99.90;;;;;;4916048;29;20234;-77
2023/01/25 10:55:59;;;;;;;30.58;14.98;;;4.30;99.90;;;;;;4935559;28;20090;-78
2023/01/25 10:58:40;;;;;;;25.52;14.38;;;4.30;99.90;;;;;;4936519;29;20031;-78
2023/01/25 11:01:27;;;;;;;25.38;13.00;;;4.00;99.90;;;;;;4933104;28;20023;-77
2023/01/25 11:03:52;;;;;;;25.08;12.82;;;4.10;99.90;;;;;;4929567;28;20281;-78
2023/01/25 11:06:34;;;;;;;28.77;13.60;;;4.10;99.90;;;;;;4918006;29;20651;-78
2023/01/25 11:09:00;;;;;;;32.20;15.50;;;4.10;99.90;;;;;;4917749;29;20431;-79
2023/01/25 11:11:35;;;;;;;33.08;15.60;;;4.20;99.90;;;;;;4939065;28;20126;-78
2023/01/25 11:14:22;;;;;;;28.80;16.15;;;4.00;99.90;;;;;;4945609;28;20111;-79
2023/01/25 11:16:47;;;;;;;31.80;16.50;;;4.20;99.90;;;;;;4927441;29;20035;-78
2023/01/25 11:19:31;;;;;;;33.38;16.42;;;4.10;99.90;;;;;;4943687;28;20051;-78
2023/01/25 11:21:57;;;;;;;33.25;16.90;;;3.90;99.90;;;;;;4928785;28;20054;-77
2023/01/25 11:24:36;;;;;;;31.33;15.57;;;4.10;99.90;;;;;;4946188;28;20031;-78
2023/01/25 11:27:12;;;;;;;29.90;15.10;;;4.00;99.90;;;;;;4938875;28;20550;-78
2023/01/25 11:29:38;;;;;;;32.20;16.25;;;4.10;99.90;;;;;;4945832;28;20093;-77
2023/01/25 11:32:15;;;;;;;31.98;16.60;;;4.00;99.90;;;;;;4944912;29;20122;-78
2023/01/25 11:34:40;;;;;;;30.20;15.15;;;3.80;99.90;;;;;;4946036;29;20074;-78
2023/01/25 11:37:25;;;;;;;35.80;17.42;;;3.80;99.90;;;;;;4944690;28;20143;-78
2023/01/25 11:40:03;;;;;;;34.97;17.90;;;3.90;99.90;;;;;;4929000;29;20043;-78
2023/01/25 11:42:57;;;;;;;33.55;17.38;;;3.90;99.90;;;;;;4928400;28;20050;-77
2023/01/25 11:45:32;;;;;;;38.30;19.17;;;4.00;99.90;;;;;;4926148;29;20085;-78
2023/01/25 11:48:08;;;;;;;42.13;19.73;;;4.10;99.90;;;;;;4918616;29;20381;-77
2023/01/25 11:50:46;;;;;;;40.80;18.95;;;3.90;99.90;;;;;;4935899;29;20031;-78
2023/01/25 11:53:21;;;;;;;36.38;17.83;;;3.90;99.90;;;;;;4932317;28;20050;-77
2023/01/25 11:56:14;;;;;;;45.95;20.45;;;3.90;99.90;;;;;;4931414;28;20032;-78
2023/01/25 11:58:45;;;;;;;36.88;17.55;;;3.80;99.90;;;;;;4918348;29;20117;-78
2023/01/25 12:01:22;;;;;;;;;;;3.60;99.90;;;;;;4932879;28;20043;-78
2023/01/25 12:04:23;;;;;;;34.78;16.65;;;3.60;99.90;;;;;;4934639;28;19977;-78
2023/01/25 12:06:49;;;;;;;42.23;18.43;;;3.70;99.90;;;;;;4910546;29;20097;-78
2023/01/25 12:09:36;;;;;;;39.90;19.10;;;3.70;99.90;;;;;;4935333;28;20031;-78
2023/01/25 12:12:11;;;;;;;35.58;16.65;;;3.90;99.90;;;;;;4933815;28;20030;-79
2023/01/25 12:14:54;;;;;;;36.67;17.40;;;3.90;99.90;;;;;;4923140;29;20479;-78
2023/01/25 12:17:28;;;;;;;35.75;16.48;;;4.00;99.90;;;;;;4934930;28;20065;-78
2023/01/25 12:20:39;;;;;;;36.33;18.27;;;3.80;99.90;;;;;;4933837;28;20051;-78
2023/01/25 12:23:20;;;;;;;38.33;18.40;;;3.70;99.90;;;;;;4912582;29;20039;-79
2023/01/25 12:25:52;;;;;;;44.72;19.45;;;3.80;99.90;;;;;;4936529;28;20047;-78
2023/01/25 12:28:27;;;;;;;43.30;19.63;;;3.90;99.90;;;;;;4917325;28;20438;-79
2023/01/25 12:31:06;;;;;;;43.25;20.48;;;3.90;99.90;;;;;;4925090;29;20111;-78
2023/01/25 12:33:44;;;;;;;44.10;20.08;;;4.20;99.90;;;;;;4929254;29;20028;-79
2023/01/25 12:36:30;;;;;;;38.65;18.05;;;4.30;99.90;;;;;;4930215;29;20399;-78
2023/01/25 12:39:03;;;;;;;40.90;17.80;;;4.50;99.90;;;;;;4937989;28;20042;-77
2023/01/25 12:42:03;;;;;;;36.92;18.13;;;4.60;99.90;;;;;;4944848;28;20024;-79
2023/01/25 12:44:34;;;;;;;40.22;18.30;;;4.60;99.90;;;;;;4929849;29;20039;-78
2023/01/25 12:47:09;;;;;;;;;;;4.40;99.90;;;;;;4933360;29;20615;-79
2023/01/25 12:50:16;;;;;;;27.08;13.50;;;4.40;99.90;;;;;;4949338;28;20205;-78
2023/01/25 12:52:51;;;;;;;33.17;15.98;;;4.40;99.90;;;;;;4920656;29;20521;-80
2023/01/25 12:55:18;;;;;;;32.38;15.48;;;4.50;99.90;;;;;;4932170;29;20416;-78
2023/01/25 12:57:52;;;;;;;36.45;16.85;;;4.50;99.90;;;;;;4927787;29;20467;-78
2023/01/25 13:00:51;;;;;;;39.72;17.67;;;4.60;99.90;;;;;;4934166;29;20463;-77